EDLN

Mönchengladbach Airport

Mönchengladbach, Germany
METAR EDLN 201420Z 30005KT 230V350 CAVOK 28/09 Q1012
Observed Flight Rules
Jul-20 @ 14:20 UTC (27 minutes ago) Visual Flight Rules
Wind Visibility Clouds
300° at 5 knots 10,000+ meters
  • Clear skies
Temperatures Readings
Current 28°C / 82°F
Dewpoint 9°C / 48°F
Humidity 30%
Altimeter 29.88" Hg
Pressure 1012 hPa
Elevation 38
METAR EDLN 201420Z 30005KT 230V350 CAVOK 28/09 Q1012
Observed Flight Rules
Jul-20 @ 14:20 UTC
(27 minutes ago)
VFR
Wind Visibility
300° at 5 knots 10,000+ meters
Clouds
  • Clear skies
Temperature Dewpoint
28°C / 82°F 9°C / 48°F
Humidity Altimeter Pressure
30% 29.88" Hg 1012 hPa